sensor_id;sensor_type;location;lat;lon;timestamp;temperature;humidity
5128;DHT22;2582;48.770;9.190;2022-09-13T00:01:44;18.00;99.90
5128;DHT22;2582;48.770;9.190;2022-09-13T00:04:10;18.00;99.90
5128;DHT22;2582;48.770;9.190;2022-09-13T00:06:36;18.00;99.90
5128;DHT22;2582;48.770;9.190;2022-09-13T00:09:01;17.80;99.90
5128;DHT22;2582;48.770;9.190;2022-09-13T00:11:28;17.80;99.90
5128;DHT22;2582;48.770;9.190;2022-09-13T00:13:56;17.80;99.90
5128;DHT22;2582;48.770;9.190;2022-09-13T00:16:24;17.80;99.90
5128;DHT22;2582;48.770;9.190;2022-09-13T00:18:51;17.80;99.90
5128;DHT22;2582;48.770;9.190;2022-09-13T00:21:19;17.80;99.90
5128;DHT22;2582;48.770;9.190;2022-09-13T00:23:46;17.70;99.90
5128;DHT22;2582;48.770;9.190;2022-09-13T00:26:15;17.70;99.90
5128;DHT22;2582;48.770;9.190;2022-09-13T00:28:42;17.70;99.90
5128;DHT22;2582;48.770;9.190;2022-09-13T00:31:10;17.70;99.90
5128;DHT22;2582;48.770;9.190;2022-09-13T00:33:36;17.80;99.90
5128;DHT22;2582;48.770;9.190;2022-09-13T00:36:05;17.80;99.90
5128;DHT22;2582;48.770;9.190;2022-09-13T00:38:33;17.70;99.90
5128;DHT22;2582;48.770;9.190;2022-09-13T00:40:59;17.60;99.90
5128;DHT22;2582;48.770;9.190;2022-09-13T00:46:15;17.60;99.90
5128;DHT22;2582;48.770;9.190;2022-09-13T00:48:43;17.60;99.90
5128;DHT22;2582;48.770;9.190;2022-09-13T00:51:10;17.40;99.90
5128;DHT22;2582;48.770;9.190;2022-09-13T00:53:39;17.20;99.90
5128;DHT22;2582;48.770;9.190;2022-09-13T00:56:16;17.30;99.90
5128;DHT22;2582;48.770;9.190;2022-09-13T00:58:57;17.30;99.90
5128;DHT22;2582;48.770;9.190;2022-09-13T01:01:32;17.20;99.90
5128;DHT22;2582;48.770;9.190;2022-09-13T01:04:02;17.10;99.90
5128;DHT22;2582;48.770;9.190;2022-09-13T01:06:30;17.10;99.90
5128;DHT22;2582;48.770;9.190;2022-09-13T01:08:58;17.10;99.90
5128;DHT22;2582;48.770;9.190;2022-09-13T01:11:48;17.10;99.90
5128;DHT22;2582;48.770;9.190;2022-09-13T01:14:17;17.00;99.90
5128;DHT22;2582;48.770;9.190;2022-09-13T01:16:43;17.00;99.90
5128;DHT22;2582;48.770;9.190;2022-09-13T01:19:09;16.80;99.90
5128;DHT22;2582;48.770;9.190;2022-09-13T01:22:06;16.80;99.90
5128;DHT22;2582;48.770;9.190;2022-09-13T01:25:10;17.00;99.90
5128;DHT22;2582;48.770;9.190;2022-09-13T01:27:55;17.00;99.90
5128;DHT22;2582;48.770;9.190;2022-09-13T01:30:40;17.00;99.90
5128;DHT22;2582;48.770;9.190;2022-09-13T01:33:25;17.00;99.90
5128;DHT22;2582;48.770;9.190;2022-09-13T01:39:05;16.90;99.90
5128;DHT22;2582;48.770;9.190;2022-09-13T01:41:34;16.70;99.90
5128;DHT22;2582;48.770;9.190;2022-09-13T01:49:48;16.40;99.90
5128;DHT22;2582;48.770;9.190;2022-09-13T01:55:06;16.30;99.90
5128;DHT22;2582;48.770;9.190;2022-09-13T01:57:47;16.30;99.90
5128;DHT22;2582;48.770;9.190;2022-09-13T02:00:16;16.30;99.90
5128;DHT22;2582;48.770;9.190;2022-09-13T02:03:00;16.30;99.90
5128;DHT22;2582;48.770;9.190;2022-09-13T02:08:36;16.50;99.90
5128;DHT22;2582;48.770;9.190;2022-09-13T02:11:13;16.50;99.90
5128;DHT22;2582;48.770;9.190;2022-09-13T02:14:24;16.60;99.90
5128;DHT22;2582;48.770;9.190;2022-09-13T02:16:37;16.70;99.90
5128;DHT22;2582;48.770;9.190;2022-09-13T02:19:10;16.70;99.90
5128;DHT22;2582;48.770;9.190;2022-09-13T02:21:39;16.70;99.90
5128;DHT22;2582;48.770;9.190;2022-09-13T02:24:15;16.60;99.90
5128;DHT22;2582;48.770;9.190;2022-09-13T02:26:43;16.60;99.90
5128;DHT22;2582;48.770;9.190;2022-09-13T02:29:13;16.60;99.90
5128;DHT22;2582;48.770;9.190;2022-09-13T02:31:47;16.60;99.90
5128;DHT22;2582;48.770;9.190;2022-09-13T02:34:21;16.60;99.90
5128;DHT22;2582;48.770;9.190;2022-09-13T02:36:48;16.50;99.90
5128;DHT22;2582;48.770;9.190;2022-09-13T02:39:17;16.40;99.90
5128;DHT22;2582;48.770;9.190;2022-09-13T02:58:09;16.60;99.90
5128;DHT22;2582;48.770;9.190;2022-09-13T03:00:36;16.70;99.90
5128;DHT22;2582;48.770;9.190;2022-09-13T03:03:04;16.80;99.90
5128;DHT22;2582;48.770;9.190;2022-09-13T03:05:31;16.80;99.90
5128;DHT22;2582;48.770;9.190;2022-09-13T03:07:58;16.80;99.90
5128;DHT22;2582;48.770;9.190;2022-09-13T03:10:27;16.80;99.90
5128;DHT22;2582;48.770;9.190;2022-09-13T03:30:03;17.00;99.90
5128;DHT22;2582;48.770;9.190;2022-09-13T03:38:09;17.10;99.90
5128;DHT22;2582;48.770;9.190;2022-09-13T03:43:12;17.10;99.90
5128;DHT22;2582;48.770;9.190;2022-09-13T03:45:48;17.10;99.90
5128;DHT22;2582;48.770;9.190;2022-09-13T03:48:15;17.10;99.90
5128;DHT22;2582;48.770;9.190;2022-09-13T03:50:44;17.10;99.90
5128;DHT22;2582;48.770;9.190;2022-09-13T03:53:14;16.90;99.90
5128;DHT22;2582;48.770;9.190;2022-09-13T03:55:42;16.70;99.90
5128;DHT22;2582;48.770;9.190;2022-09-13T03:58:11;16.70;99.90
5128;DHT22;2582;48.770;9.190;2022-09-13T04:00:37;16.70;99.90
5128;DHT22;2582;48.770;9.190;2022-09-13T04:03:05;16.70;99.90
5128;DHT22;2582;48.770;9.190;2022-09-13T04:05:30;16.70;99.90
5128;DHT22;2582;48.770;9.190;2022-09-13T04:07:56;16.80;99.90
5128;DHT22;2582;48.770;9.190;2022-09-13T04:10:21;16.80;99.90
5128;DHT22;2582;48.770;9.190;2022-09-13T04:12:48;16.70;99.90
5128;DHT22;2582;48.770;9.190;2022-09-13T04:15:14;16.50;99.90
5128;DHT22;2582;48.770;9.190;2022-09-13T04:17:40;16.40;99.90
5128;DHT22;2582;48.770;9.190;2022-09-13T04:20:06;16.40;99.90
5128;DHT22;2582;48.770;9.190;2022-09-13T04:22:32;16.50;99.90
5128;DHT22;2582;48.770;9.190;2022-09-13T04:24:58;16.50;99.90
5128;DHT22;2582;48.770;9.190;2022-09-13T04:27:24;16.50;99.90
5128;DHT22;2582;48.770;9.190;2022-09-13T04:29:50;16.50;99.90
5128;DHT22;2582;48.770;9.190;2022-09-13T04:32:15;16.50;99.90
5128;DHT22;2582;48.770;9.190;2022-09-13T04:34:41;16.50;99.90
5128;DHT22;2582;48.770;9.190;2022-09-13T04:37:07;16.40;99.90
5128;DHT22;2582;48.770;9.190;2022-09-13T04:39:33;16.40;99.90
5128;DHT22;2582;48.770;9.190;2022-09-13T04:41:59;16.50;99.90
5128;DHT22;2582;48.770;9.190;2022-09-13T04:44:24;16.60;99.90
5128;DHT22;2582;48.770;9.190;2022-09-13T04:46:50;16.70;99.90
5128;DHT22;2582;48.770;9.190;2022-09-13T04:49:16;16.80;99.90
5128;DHT22;2582;48.770;9.190;2022-09-13T04:51:42;16.80;99.90
5128;DHT22;2582;48.770;9.190;2022-09-13T04:54:09;16.70;99.90
5128;DHT22;2582;48.770;9.190;2022-09-13T04:56:35;16.50;99.90
5128;DHT22;2582;48.770;9.190;2022-09-13T04:59:00;16.50;99.90
5128;DHT22;2582;48.770;9.190;2022-09-13T05:01:26;16.60;99.90
5128;DHT22;2582;48.770;9.190;2022-09-13T05:03:51;16.70;99.90
5128;DHT22;2582;48.770;9.190;2022-09-13T05:06:19;16.80;99.90
5128;DHT22;2582;48.770;9.190;2022-09-13T05:08:50;16.90;99.90
5128;DHT22;2582;48.770;9.190;2022-09-13T05:11:17;17.00;99.90
5128;DHT22;2582;48.770;9.190;2022-09-13T05:13:42;17.00;99.90
5128;DHT22;2582;48.770;9.190;2022-09-13T05:16:08;17.00;99.90
5128;DHT22;2582;48.770;9.190;2022-09-13T05:18:35;16.90;99.90
5128;DHT22;2582;48.770;9.190;2022-09-13T05:21:02;16.80;99.90
5128;DHT22;2582;48.770;9.190;2022-09-13T05:23:29;16.80;99.90
5128;DHT22;2582;48.770;9.190;2022-09-13T05:26:01;16.70;99.90
5128;DHT22;2582;48.770;9.190;2022-09-13T05:28:32;16.80;99.90
5128;DHT22;2582;48.770;9.190;2022-09-13T05:31:12;16.80;99.90
5128;DHT22;2582;48.770;9.190;2022-09-13T05:33:38;16.90;99.90
5128;DHT22;2582;48.770;9.190;2022-09-13T05:36:05;16.90;99.90
5128;DHT22;2582;48.770;9.190;2022-09-13T05:38:31;16.90;99.90
5128;DHT22;2582;48.770;9.190;2022-09-13T05:40:59;16.80;99.90
5128;DHT22;2582;48.770;9.190;2022-09-13T05:43:27;16.90;99.90
5128;DHT22;2582;48.770;9.190;2022-09-13T05:46:07;17.00;99.90
5128;DHT22;2582;48.770;9.190;2022-09-13T05:48:34;17.00;99.90
5128;DHT22;2582;48.770;9.190;2022-09-13T05:51:20;17.00;99.90
5128;DHT22;2582;48.770;9.190;2022-09-13T05:53:47;17.00;99.90
5128;DHT22;2582;48.770;9.190;2022-09-13T05:56:19;17.00;99.90
5128;DHT22;2582;48.770;9.190;2022-09-13T05:58:46;17.00;99.90
5128;DHT22;2582;48.770;9.190;2022-09-13T06:01:17;17.00;99.90
5128;DHT22;2582;48.770;9.190;2022-09-13T06:03:49;17.00;99.90
5128;DHT22;2582;48.770;9.190;2022-09-13T06:06:15;17.20;99.90
5128;DHT22;2582;48.770;9.190;2022-09-13T06:08:41;17.20;99.90
5128;DHT22;2582;48.770;9.190;2022-09-13T06:11:09;17.30;99.90
5128;DHT22;2582;48.770;9.190;2022-09-13T06:13:36;17.40;99.90
5128;DHT22;2582;48.770;9.190;2022-09-13T06:16:04;17.60;99.90
5128;DHT22;2582;48.770;9.190;2022-09-13T06:18:30;17.70;99.90
5128;DHT22;2582;48.770;9.190;2022-09-13T06:20:58;17.80;99.90
5128;DHT22;2582;48.770;9.190;2022-09-13T06:23:25;17.90;99.90
5128;DHT22;2582;48.770;9.190;2022-09-13T06:26:09;17.90;99.90
5128;DHT22;2582;48.770;9.190;2022-09-13T06:28:36;18.00;99.90
5128;DHT22;2582;48.770;9.190;2022-09-13T06:31:04;18.00;99.90
5128;DHT22;2582;48.770;9.190;2022-09-13T06:33:36;18.00;99.90
5128;DHT22;2582;48.770;9.190;2022-09-13T06:36:03;18.00;99.90
5128;DHT22;2582;48.770;9.190;2022-09-13T06:38:29;18.00;99.90
5128;DHT22;2582;48.770;9.190;2022-09-13T06:41:06;17.80;99.90
5128;DHT22;2582;48.770;9.190;2022-09-13T06:43:33;17.80;99.90
5128;DHT22;2582;48.770;9.190;2022-09-13T06:46:03;17.80;99.90
5128;DHT22;2582;48.770;9.190;2022-09-13T06:48:31;17.80;99.90
5128;DHT22;2582;48.770;9.190;2022-09-13T06:51:02;17.90;99.90
5128;DHT22;2582;48.770;9.190;2022-09-13T06:53:29;18.00;99.90
5128;DHT22;2582;48.770;9.190;2022-09-13T06:56:09;18.10;99.90
5128;DHT22;2582;48.770;9.190;2022-09-13T06:58:37;18.30;99.90
5128;DHT22;2582;48.770;9.190;2022-09-13T07:01:24;18.40;99.90
5128;DHT22;2582;48.770;9.190;2022-09-13T07:03:53;18.50;99.90
5128;DHT22;2582;48.770;9.190;2022-09-13T07:06:21;18.60;99.90
5128;DHT22;2582;48.770;9.190;2022-09-13T07:08:49;18.70;99.90
5128;DHT22;2582;48.770;9.190;2022-09-13T07:11:17;18.80;99.90
5128;DHT22;2582;48.770;9.190;2022-09-13T07:13:56;19.00;99.90
5128;DHT22;2582;48.770;9.190;2022-09-13T07:16:28;19.10;99.90
5128;DHT22;2582;48.770;9.190;2022-09-13T07:18:56;19.20;99.90
5128;DHT22;2582;48.770;9.190;2022-09-13T07:21:23;19.40;99.90
5128;DHT22;2582;48.770;9.190;2022-09-13T07:23:50;19.50;99.90
5128;DHT22;2582;48.770;9.190;2022-09-13T07:26:16;19.60;99.90
5128;DHT22;2582;48.770;9.190;2022-09-13T07:28:46;19.30;99.90
5128;DHT22;2582;48.770;9.190;2022-09-13T07:31:39;19.40;99.90
5128;DHT22;2582;48.770;9.190;2022-09-13T07:34:07;19.70;99.90
5128;DHT22;2582;48.770;9.190;2022-09-13T07:36:34;19.70;99.90
5128;DHT22;2582;48.770;9.190;2022-09-13T07:39:01;19.70;99.90
5128;DHT22;2582;48.770;9.190;2022-09-13T07:41:28;19.70;99.90
5128;DHT22;2582;48.770;9.190;2022-09-13T07:43:54;19.70;99.90
5128;DHT22;2582;48.770;9.190;2022-09-13T07:46:23;19.60;99.90
5128;DHT22;2582;48.770;9.190;2022-09-13T07:48:51;19.50;99.90
5128;DHT22;2582;48.770;9.190;2022-09-13T07:51:21;19.50;99.90
5128;DHT22;2582;48.770;9.190;2022-09-13T07:53:48;20.00;99.90
5128;DHT22;2582;48.770;9.190;2022-09-13T07:56:16;20.30;99.90
5128;DHT22;2582;48.770;9.190;2022-09-13T07:58:44;20.60;99.90
5128;DHT22;2582;48.770;9.190;2022-09-13T08:01:31;20.30;99.90
5128;DHT22;2582;48.770;9.190;2022-09-13T08:04:03;20.20;99.90
5128;DHT22;2582;48.770;9.190;2022-09-13T08:06:30;20.30;99.90
5128;DHT22;2582;48.770;9.190;2022-09-13T08:08:57;20.30;99.90
5128;DHT22;2582;48.770;9.190;2022-09-13T08:11:34;20.80;99.90
5128;DHT22;2582;48.770;9.190;2022-09-13T08:14:01;21.10;99.90
5128;DHT22;2582;48.770;9.190;2022-09-13T08:16:28;21.40;99.90
5128;DHT22;2582;48.770;9.190;2022-09-13T08:18:56;21.50;99.90
5128;DHT22;2582;48.770;9.190;2022-09-13T08:21:22;21.80;99.90
5128;DHT22;2582;48.770;9.190;2022-09-13T08:23:48;21.40;99.90
5128;DHT22;2582;48.770;9.190;2022-09-13T08:26:15;21.30;99.90
5128;DHT22;2582;48.770;9.190;2022-09-13T08:28:41;21.30;99.90
5128;DHT22;2582;48.770;9.190;2022-09-13T08:31:12;21.40;99.90
5128;DHT22;2582;48.770;9.190;2022-09-13T08:33:43;21.70;99.90
5128;DHT22;2582;48.770;9.190;2022-09-13T08:36:08;22.10;99.90
5128;DHT22;2582;48.770;9.190;2022-09-13T08:38:34;22.30;99.90
5128;DHT22;2582;48.770;9.190;2022-09-13T08:41:17;22.30;99.90
5128;DHT22;2582;48.770;9.190;2022-09-13T08:44:09;22.20;99.90
5128;DHT22;2582;48.770;9.190;2022-09-13T08:46:44;22.00;99.90
5128;DHT22;2582;48.770;9.190;2022-09-13T08:49:16;22.00;99.90
5128;DHT22;2582;48.770;9.190;2022-09-13T08:51:55;22.10;99.90
5128;DHT22;2582;48.770;9.190;2022-09-13T08:54:22;22.50;99.90
5128;DHT22;2582;48.770;9.190;2022-09-13T09:05:28;22.90;99.90
5128;DHT22;2582;48.770;9.190;2022-09-13T09:10:32;22.30;99.90
5128;DHT22;2582;48.770;9.190;2022-09-13T09:13:18;22.20;99.90
5128;DHT22;2582;48.770;9.190;2022-09-13T09:16:00;22.30;99.90
5128;DHT22;2582;48.770;9.190;2022-09-13T09:18:32;22.70;99.90
5128;DHT22;2582;48.770;9.190;2022-09-13T09:21:00;23.00;99.90
5128;DHT22;2582;48.770;9.190;2022-09-13T09:23:34;23.00;99.90
5128;DHT22;2582;48.770;9.190;2022-09-13T09:37:27;23.60;99.90
5128;DHT22;2582;48.770;9.190;2022-09-13T09:40:01;23.50;99.90
5128;DHT22;2582;48.770;9.190;2022-09-13T09:42:31;23.70;99.90
5128;DHT22;2582;48.770;9.190;2022-09-13T09:45:27;24.20;99.90
5128;DHT22;2582;48.770;9.190;2022-09-13T09:47:55;24.00;99.90
5128;DHT22;2582;48.770;9.190;2022-09-13T09:50:26;23.90;99.90
5128;DHT22;2582;48.770;9.190;2022-09-13T09:53:12;24.00;99.90
5128;DHT22;2582;48.770;9.190;2022-09-13T09:58:13;24.50;99.90
5128;DHT22;2582;48.770;9.190;2022-09-13T10:00:54;24.60;99.90
5128;DHT22;2582;48.770;9.190;2022-09-13T10:03:25;24.70;99.90
5128;DHT22;2582;48.770;9.190;2022-09-13T10:06:04;24.60;99.90
5128;DHT22;2582;48.770;9.190;2022-09-13T10:08:33;24.70;99.90
5128;DHT22;2582;48.770;9.190;2022-09-13T10:11:00;24.40;99.90
5128;DHT22;2582;48.770;9.190;2022-09-13T10:13:27;24.30;99.90
5128;DHT22;2582;48.770;9.190;2022-09-13T10:15:55;24.30;99.90
5128;DHT22;2582;48.770;9.190;2022-09-13T10:18:23;24.50;99.90
5128;DHT22;2582;48.770;9.190;2022-09-13T10:21:06;24.60;99.90
5128;DHT22;2582;48.770;9.190;2022-09-13T10:23:36;24.80;99.90
5128;DHT22;2582;48.770;9.190;2022-09-13T10:26:22;24.90;99.90
5128;DHT22;2582;48.770;9.190;2022-09-13T10:29:08;25.20;99.90
5128;DHT22;2582;48.770;9.190;2022-09-13T10:31:40;25.50;99.90
5128;DHT22;2582;48.770;9.190;2022-09-13T10:37:26;25.70;99.10
5128;DHT22;2582;48.770;9.190;2022-09-13T10:39:35;25.70;98.90
5128;DHT22;2582;48.770;9.190;2022-09-13T10:42:08;25.90;99.00
5128;DHT22;2582;48.770;9.190;2022-09-13T10:44:39;26.00;99.00
5128;DHT22;2582;48.770;9.190;2022-09-13T10:47:10;26.40;98.20
5128;DHT22;2582;48.770;9.190;2022-09-13T10:49:52;27.40;97.40
5128;DHT22;2582;48.770;9.190;2022-09-13T10:52:26;27.50;95.90
5128;DHT22;2582;48.770;9.190;2022-09-13T10:54:52;27.90;95.40
5128;DHT22;2582;48.770;9.190;2022-09-13T10:57:31;28.30;94.80
5128;DHT22;2582;48.770;9.190;2022-09-13T10:59:58;28.00;94.20
5128;DHT22;2582;48.770;9.190;2022-09-13T11:17:07;32.60;76.20
5128;DHT22;2582;48.770;9.190;2022-09-13T11:20:02;31.60;74.30
5128;DHT22;2582;48.770;9.190;2022-09-13T11:25:37;30.50;77.80
5128;DHT22;2582;48.770;9.190;2022-09-13T11:34:17;30.10;76.50
5128;DHT22;2582;48.770;9.190;2022-09-13T11:39:42;31.00;73.10
5128;DHT22;2582;48.770;9.190;2022-09-13T11:50:52;29.90;72.70
5128;DHT22;2582;48.770;9.190;2022-09-13T11:53:44;30.10;72.60
5128;DHT22;2582;48.770;9.190;2022-09-13T11:56:23;30.90;69.90
5128;DHT22;2582;48.770;9.190;2022-09-13T11:58:55;31.40;67.80
5128;DHT22;2582;48.770;9.190;2022-09-13T12:01:28;31.20;69.00
5128;DHT22;2582;48.770;9.190;2022-09-13T12:04:12;31.90;67.20
5128;DHT22;2582;48.770;9.190;2022-09-13T12:06:43;32.20;64.10
5128;DHT22;2582;48.770;9.190;2022-09-13T12:09:45;32.70;62.00
5128;DHT22;2582;48.770;9.190;2022-09-13T12:12:09;32.90;61.10
5128;DHT22;2582;48.770;9.190;2022-09-13T12:15:04;33.70;59.00
5128;DHT22;2582;48.770;9.190;2022-09-13T12:17:39;34.00;58.80
5128;DHT22;2582;48.770;9.190;2022-09-13T12:20:14;33.10;58.50
5128;DHT22;2582;48.770;9.190;2022-09-13T12:22:41;32.90;58.60
5128;DHT22;2582;48.770;9.190;2022-09-13T12:25:18;33.00;58.90
5128;DHT22;2582;48.770;9.190;2022-09-13T12:28:01;32.90;56.90
5128;DHT22;2582;48.770;9.190;2022-09-13T12:30:41;34.50;54.60
5128;DHT22;2582;48.770;9.190;2022-09-13T12:33:13;34.50;53.60
5128;DHT22;2582;48.770;9.190;2022-09-13T12:44:50;32.70;56.70
5128;DHT22;2582;48.770;9.190;2022-09-13T12:56:09;34.90;52.70
5128;DHT22;2582;48.770;9.190;2022-09-13T12:58:48;34.60;51.80
5128;DHT22;2582;48.770;9.190;2022-09-13T13:01:25;35.20;51.20
5128;DHT22;2582;48.770;9.190;2022-09-13T13:04:14;35.80;48.40
5128;DHT22;2582;48.770;9.190;2022-09-13T13:06:57;34.80;48.50
5128;DHT22;2582;48.770;9.190;2022-09-13T13:11:58;35.50;48.10
5128;DHT22;2582;48.770;9.190;2022-09-13T13:17:34;35.60;47.30
5128;DHT22;2582;48.770;9.190;2022-09-13T13:23:13;35.50;46.30
5128;DHT22;2582;48.770;9.190;2022-09-13T13:34:46;38.60;41.20
5128;DHT22;2582;48.770;9.190;2022-09-13T13:36:47;38.90;41.40
5128;DHT22;2582;48.770;9.190;2022-09-13T13:42:00;37.80;40.90
5128;DHT22;2582;48.770;9.190;2022-09-13T13:59:52;35.70;41.70
5128;DHT22;2582;48.770;9.190;2022-09-13T14:02:33;34.80;42.20
5128;DHT22;2582;48.770;9.190;2022-09-13T14:07:59;32.80;45.60
5128;DHT22;2582;48.770;9.190;2022-09-13T14:21:28;32.70;46.40
5128;DHT22;2582;48.770;9.190;2022-09-13T14:26:48;32.10;46.20
5128;DHT22;2582;48.770;9.190;2022-09-13T14:29:20;32.00;47.10
5128;DHT22;2582;48.770;9.190;2022-09-13T14:31:51;32.20;46.10
5128;DHT22;2582;48.770;9.190;2022-09-13T14:34:32;32.40;46.30
5128;DHT22;2582;48.770;9.190;2022-09-13T14:37:02;32.50;45.50
5128;DHT22;2582;48.770;9.190;2022-09-13T14:39:28;33.50;45.70
5128;DHT22;2582;48.770;9.190;2022-09-13T14:42:14;35.20;40.30
5128;DHT22;2582;48.770;9.190;2022-09-13T14:44:46;36.80;38.80
5128;DHT22;2582;48.770;9.190;2022-09-13T14:47:59;36.80;38.70
5128;DHT22;2582;48.770;9.190;2022-09-13T14:50:32;36.50;39.40
5128;DHT22;2582;48.770;9.190;2022-09-13T14:53:03;36.30;37.50
5128;DHT22;2582;48.770;9.190;2022-09-13T14:55:43;36.30;38.90
5128;DHT22;2582;48.770;9.190;2022-09-13T14:58:25;35.90;39.00
5128;DHT22;2582;48.770;9.190;2022-09-13T15:01:04;35.80;41.50
5128;DHT22;2582;48.770;9.190;2022-09-13T15:03:31;35.40;38.70
5128;DHT22;2582;48.770;9.190;2022-09-13T15:05:58;34.90;39.00
5128;DHT22;2582;48.770;9.190;2022-09-13T15:10:51;33.90;41.50
5128;DHT22;2582;48.770;9.190;2022-09-13T15:13:17;32.70;41.40
5128;DHT22;2582;48.770;9.190;2022-09-13T15:15:43;32.10;44.50
5128;DHT22;2582;48.770;9.190;2022-09-13T15:21:05;31.70;46.30
5128;DHT22;2582;48.770;9.190;2022-09-13T15:23:47;31.50;47.40
5128;DHT22;2582;48.770;9.190;2022-09-13T15:26:21;32.00;46.80
5128;DHT22;2582;48.770;9.190;2022-09-13T15:31:24;32.20;46.80
5128;DHT22;2582;48.770;9.190;2022-09-13T15:36:41;32.50;47.40
5128;DHT22;2582;48.770;9.190;2022-09-13T15:41:39;31.70;49.50
5128;DHT22;2582;48.770;9.190;2022-09-13T15:44:07;31.40;50.60
5128;DHT22;2582;48.770;9.190;2022-09-13T15:46:43;31.30;50.60
5128;DHT22;2582;48.770;9.190;2022-09-13T15:49:16;31.00;51.40
5128;DHT22;2582;48.770;9.190;2022-09-13T15:51:43;30.60;51.50
5128;DHT22;2582;48.770;9.190;2022-09-13T15:54:13;30.20;52.20
5128;DHT22;2582;48.770;9.190;2022-09-13T15:56:42;30.40;53.00
5128;DHT22;2582;48.770;9.190;2022-09-13T15:59:12;30.20;53.80
5128;DHT22;2582;48.770;9.190;2022-09-13T16:01:38;30.20;54.10
5128;DHT22;2582;48.770;9.190;2022-09-13T16:04:04;30.10;54.70
5128;DHT22;2582;48.770;9.190;2022-09-13T16:06:30;29.90;55.60
5128;DHT22;2582;48.770;9.190;2022-09-13T16:08:56;29.60;56.60
5128;DHT22;2582;48.770;9.190;2022-09-13T16:11:24;29.50;56.50
5128;DHT22;2582;48.770;9.190;2022-09-13T16:13:50;29.30;57.30
5128;DHT22;2582;48.770;9.190;2022-09-13T16:16:15;29.30;58.10
5128;DHT22;2582;48.770;9.190;2022-09-13T16:18:41;29.30;58.40
5128;DHT22;2582;48.770;9.190;2022-09-13T16:21:06;29.10;58.60
5128;DHT22;2582;48.770;9.190;2022-09-13T16:23:32;29.10;59.00
5128;DHT22;2582;48.770;9.190;2022-09-13T16:25:59;29.20;60.90
5128;DHT22;2582;48.770;9.190;2022-09-13T16:28:25;29.10;61.30
5128;DHT22;2582;48.770;9.190;2022-09-13T16:30:52;29.10;62.20
5128;DHT22;2582;48.770;9.190;2022-09-13T16:33:18;29.00;62.90
5128;DHT22;2582;48.770;9.190;2022-09-13T16:35:44;28.80;63.10
5128;DHT22;2582;48.770;9.190;2022-09-13T16:38:10;28.70;64.70
5128;DHT22;2582;48.770;9.190;2022-09-13T16:40:41;28.60;65.60
5128;DHT22;2582;48.770;9.190;2022-09-13T16:43:07;28.30;66.00
5128;DHT22;2582;48.770;9.190;2022-09-13T16:45:33;28.00;66.80
5128;DHT22;2582;48.770;9.190;2022-09-13T16:48:02;27.90;68.20
5128;DHT22;2582;48.770;9.190;2022-09-13T16:50:28;27.70;69.20
5128;DHT22;2582;48.770;9.190;2022-09-13T16:52:54;27.60;69.70
5128;DHT22;2582;48.770;9.190;2022-09-13T16:55:19;27.50;69.70
5128;DHT22;2582;48.770;9.190;2022-09-13T16:57:45;27.30;69.20
5128;DHT22;2582;48.770;9.190;2022-09-13T17:00:14;27.20;71.00
5128;DHT22;2582;48.770;9.190;2022-09-13T17:02:40;27.10;71.70
5128;DHT22;2582;48.770;9.190;2022-09-13T17:05:06;27.00;71.20
5128;DHT22;2582;48.770;9.190;2022-09-13T17:07:33;26.90;71.10
5128;DHT22;2582;48.770;9.190;2022-09-13T17:09:59;26.90;71.20
5128;DHT22;2582;48.770;9.190;2022-09-13T17:12:25;26.80;71.60
5128;DHT22;2582;48.770;9.190;2022-09-13T17:14:52;26.80;71.70
5128;DHT22;2582;48.770;9.190;2022-09-13T17:17:19;26.70;72.30
5128;DHT22;2582;48.770;9.190;2022-09-13T17:19:44;26.60;72.70
5128;DHT22;2582;48.770;9.190;2022-09-13T17:22:11;26.40;73.70
5128;DHT22;2582;48.770;9.190;2022-09-13T17:24:37;26.30;74.80
5128;DHT22;2582;48.770;9.190;2022-09-13T17:27:04;26.20;75.30
5128;DHT22;2582;48.770;9.190;2022-09-13T17:29:31;26.20;74.90
5128;DHT22;2582;48.770;9.190;2022-09-13T17:31:58;26.00;75.50
5128;DHT22;2582;48.770;9.190;2022-09-13T17:34:24;25.90;76.10
5128;DHT22;2582;48.770;9.190;2022-09-13T17:36:49;25.90;76.90
5128;DHT22;2582;48.770;9.190;2022-09-13T17:39:15;25.70;77.40
5128;DHT22;2582;48.770;9.190;2022-09-13T17:41:40;25.60;77.80
5128;DHT22;2582;48.770;9.190;2022-09-13T17:44:06;25.50;78.40
5128;DHT22;2582;48.770;9.190;2022-09-13T17:46:32;25.40;78.60
5128;DHT22;2582;48.770;9.190;2022-09-13T17:48:58;25.30;80.00
5128;DHT22;2582;48.770;9.190;2022-09-13T17:51:28;25.30;80.50
5128;DHT22;2582;48.770;9.190;2022-09-13T17:53:57;25.20;81.00
5128;DHT22;2582;48.770;9.190;2022-09-13T17:56:27;25.10;82.00
5128;DHT22;2582;48.770;9.190;2022-09-13T17:59:01;25.00;83.10
5128;DHT22;2582;48.770;9.190;2022-09-13T18:01:27;25.10;83.10
5128;DHT22;2582;48.770;9.190;2022-09-13T18:03:53;25.10;82.80
5128;DHT22;2582;48.770;9.190;2022-09-13T18:06:19;25.00;83.60
5128;DHT22;2582;48.770;9.190;2022-09-13T18:08:45;25.00;83.80
5128;DHT22;2582;48.770;9.190;2022-09-13T18:11:13;24.90;84.50
5128;DHT22;2582;48.770;9.190;2022-09-13T18:13:42;24.80;85.00
5128;DHT22;2582;48.770;9.190;2022-09-13T18:16:14;24.80;85.90
5128;DHT22;2582;48.770;9.190;2022-09-13T18:18:40;24.60;87.50
5128;DHT22;2582;48.770;9.190;2022-09-13T18:21:06;24.40;89.20
5128;DHT22;2582;48.770;9.190;2022-09-13T18:23:33;24.40;90.10
5128;DHT22;2582;48.770;9.190;2022-09-13T18:28:26;24.20;91.20
5128;DHT22;2582;48.770;9.190;2022-09-13T18:30:56;24.00;91.90
5128;DHT22;2582;48.770;9.190;2022-09-13T18:33:23;23.90;92.20
5128;DHT22;2582;48.770;9.190;2022-09-13T18:38:21;23.90;92.90
5128;DHT22;2582;48.770;9.190;2022-09-13T18:40:47;23.80;93.30
5128;DHT22;2582;48.770;9.190;2022-09-13T18:43:21;23.70;93.50
5128;DHT22;2582;48.770;9.190;2022-09-13T18:45:53;23.60;94.00
5128;DHT22;2582;48.770;9.190;2022-09-13T18:48:19;23.60;94.60
5128;DHT22;2582;48.770;9.190;2022-09-13T18:50:44;23.60;94.90
5128;DHT22;2582;48.770;9.190;2022-09-13T18:53:10;23.60;95.10
5128;DHT22;2582;48.770;9.190;2022-09-13T18:55:35;23.50;95.70
5128;DHT22;2582;48.770;9.190;2022-09-13T18:58:01;23.50;96.10
5128;DHT22;2582;48.770;9.190;2022-09-13T19:00:29;23.60;96.40
5128;DHT22;2582;48.770;9.190;2022-09-13T19:02:56;23.50;96.60
5128;DHT22;2582;48.770;9.190;2022-09-13T19:05:24;23.50;96.90
5128;DHT22;2582;48.770;9.190;2022-09-13T19:07:50;23.50;97.20
5128;DHT22;2582;48.770;9.190;2022-09-13T19:10:15;23.40;97.40
5128;DHT22;2582;48.770;9.190;2022-09-13T19:12:42;23.50;98.10
5128;DHT22;2582;48.770;9.190;2022-09-13T19:15:08;23.50;97.80
5128;DHT22;2582;48.770;9.190;2022-09-13T19:17:34;23.40;97.80
5128;DHT22;2582;48.770;9.190;2022-09-13T19:20:00;23.30;98.20
5128;DHT22;2582;48.770;9.190;2022-09-13T19:22:26;23.30;98.50
5128;DHT22;2582;48.770;9.190;2022-09-13T19:24:51;23.20;98.70
5128;DHT22;2582;48.770;9.190;2022-09-13T19:27:19;23.20;98.50
5128;DHT22;2582;48.770;9.190;2022-09-13T19:29:45;23.20;98.80
5128;DHT22;2582;48.770;9.190;2022-09-13T19:32:11;23.20;98.70
5128;DHT22;2582;48.770;9.190;2022-09-13T19:34:36;23.30;99.00
5128;DHT22;2582;48.770;9.190;2022-09-13T19:37:02;23.30;99.30
5128;DHT22;2582;48.770;9.190;2022-09-13T19:39:28;23.30;99.40
5128;DHT22;2582;48.770;9.190;2022-09-13T19:41:53;23.20;99.00
5128;DHT22;2582;48.770;9.190;2022-09-13T19:44:19;23.20;99.30
5128;DHT22;2582;48.770;9.190;2022-09-13T19:46:45;23.20;99.40
5128;DHT22;2582;48.770;9.190;2022-09-13T19:49:13;23.20;99.60
5128;DHT22;2582;48.770;9.190;2022-09-13T19:51:39;23.20;99.70
5128;DHT22;2582;48.770;9.190;2022-09-13T19:54:08;23.30;99.90